Monday, December 18, 2017, 7:56 AM EST
Back to Local

KRKD, Rockland, Knox County Regional Airport

Location: Owls Head, ME, United States Lat: 44.067
Local Time: 7:56 AM EST (12:56 GMT) Lon: -69.1
Time Zone: US/Eastern Elev: 55 ft

Show me the last for .
Show Decoded

2017-12-18 06:56 METAR KRKD 181156Z AUTO 00000KT 10SM CLR M12/M14 A3019 RMK AO2 SLP226 T11171139
                 11117 21144 57013 FZRANO =
2017-12-18 05:56 METAR KRKD 181056Z AUTO 29003KT 10SM CLR M12/M15 A3021 RMK AO2 SLP230 T11221150
                 FZRANO =
2017-12-18 04:56 METAR KRKD 180956Z AUTO 26003KT 10SM CLR M13/M16 A3022 RMK AO2 SLP235 T11281156
                 FZRANO =
2017-12-18 03:56 METAR KRKD 180856Z AUTO 28005KT 10SM CLR M14/M16 A3023 RMK AO2 SLP239 T11391161
                 58002 FZRANO =
2017-12-18 02:56 METAR KRKD 180756Z AUTO 29004KT 10SM CLR M13/M16 A3024 RMK AO2 SLP241 T11331161
                 FZRANO =
2017-12-18 01:56 METAR KRKD 180656Z AUTO 00000KT 10SM CLR M14/M16 A3025 RMK AO2 SLP244 T11441161
                 FZRANO =
2017-12-18 00:56 METAR KRKD 180556Z AUTO 00000KT 10SM CLR M14/M16 A3024 RMK AO2 SLP241 T11441161
                 11094 21144 58009 FZRANO =
2017-12-17 23:56 METAR KRKD 180456Z AUTO 00000KT 10SM CLR M13/M16 A3025 RMK AO2 SLP245 T11281156
                 410501139 FZRANO =
2017-12-17 22:56 METAR KRKD 180356Z AUTO 29004KT 10SM CLR M12/M16 A3027 RMK AO2 SLP251 T11171161
                 FZRANO =
2017-12-17 21:56 METAR KRKD 180256Z AUTO 33003KT 10SM CLR M11/M16 A3027 RMK AO2 SLP251 T11111161
                 50006 FZRANO =
2017-12-17 20:56 METAR KRKD 180156Z AUTO 28005KT 10SM CLR M12/M16 A3028 RMK AO2 SLP256 T11171156
                 FZRANO =
2017-12-17 19:56 METAR KRKD 180056Z AUTO 00000KT 10SM CLR M12/M16 A3027 RMK AO2 SLP253 T11221161
                 FZRANO =
2017-12-17 18:56 METAR KRKD 172356Z AUTO 24003KT 10SM CLR M09/M16 A3025 RMK AO2 SLP245 T10941156
                 11050 21094 51020 FZRANO =
2017-12-17 17:56 METAR KRKD 172256Z AUTO 30004KT 10SM CLR M08/M16 A3024 RMK AO2 SLP240 T10831156
                 FZRANO =
2017-12-17 16:56 METAR KRKD 172156Z AUTO VRB03KT 10SM CLR M07/M16 A3021 RMK AO2 SLP233 T10721156
                 FZRANO =
2017-12-17 15:56 METAR KRKD 172056Z AUTO 30007KT 10SM CLR M07/M16 A3019 RMK AO2 SLP225 T10671156
                 53004 FZRANO =
2017-12-17 14:56 METAR KRKD 171956Z AUTO 30008KT 10SM CLR M06/M14 A3018 RMK AO2 SLP223 T10561144
                 FZRANO =
2017-12-17 13:56 METAR KRKD 171856Z AUTO 30006KT 10SM CLR M05/M13 A3018 RMK AO2 SLP222 T10501133
                 FZRANO =
2017-12-17 12:56 METAR KRKD 171756Z AUTO 30008KT 10SM CLR M06/M13 A3018 RMK AO2 SLP222 T10561133
                 11056 21139 56013 FZRANO =
2017-12-17 11:56 METAR KRKD 171656Z AUTO 30007KT 10SM CLR M06/M14 A3018 RMK AO2 SLP223 T10611139
                 FZRANO =
2017-12-17 10:56 METAR KRKD 171556Z AUTO 29007KT 10SM CLR M07/M13 A3021 RMK AO2 SLP231 T10671133
                 FZRANO =
2017-12-17 09:56 METAR KRKD 171456Z AUTO 29008KT 10SM CLR M08/M13 A3022 RMK AO2 SLP235 T10781133
                 51004 FZRANO =
2017-12-17 08:56 METAR KRKD 171356Z AUTO 30004KT 10SM CLR M09/M13 A3021 RMK AO2 SLP232 T10941133
                 FZRANO =

Support USWX by starting your Amazon purchase here.